^^
Datos históricos de la estación: Murcia-Puente Tocinos
Diario Informe para Noviembre 22, 2021 Unidades:  Métrico    Ingés   Ambas
Diario Semanal Mensual Anual
  Máxima: Mínima: Promedio:
Temperatura: 18.3 °C 11.7 °C 14.7 °C
Punto de rocio: 11.7 °C 8.7 °C 10.6 °C
Humedad: 92% 56.1% 77%
Velocidad viento: 16.1km/h 0km/h 5.7km/h
Racha viento: 29.6km/h - -
Viento- - Sur
Presión: 1010.4 hPa 1007.3 hPa -
Precipitación: 0.3 mm    
 
 
Tabla de datos para Noviembre 22, 2021
Hora Temperatura Punto de rocio Presión Viento Velocidad viento Racha viento Humedad Intensidad lluvia(por hora) Nubes
00:04 15.4 °C 11.2 °C 1010.4 hPa Sur 6.4 km/h 10.3 km/h 76% 0.0 mm
00:09 15.4 °C 11.2 °C 1010.4 hPa Sur 6.6 km/h 11.9 km/h 76% 0.0 mm
00:14 15.3 °C 11.1 °C 1010.3 hPa SSO 6.9 km/h 13.7 km/h 76% 0.0 mm
00:19 15.3 °C 11.1 °C 1010.3 hPa SSO 7.1 km/h 11.9 km/h 76% 0.0 mm
00:24 15.4 °C 11.2 °C 1010.3 hPa SSO 7.6 km/h 13.7 km/h 76% 0.0 mm
00:29 15.4 °C 11.1 °C 1010.2 hPa SSO 8.2 km/h 14.8 km/h 75.3% 0.0 mm
00:34 15.4 °C 11 °C 1010.2 hPa SSO 9.5 km/h 13 km/h 75% 0.0 mm
00:39 15.5 °C 11.1 °C 1010.2 hPa SSO 9.5 km/h 13.7 km/h 75% 0.0 mm
00:44 15.5 °C 11 °C 1010.1 hPa SSO 9.5 km/h 11.1 km/h 74.3% 0.0 mm
00:49 15.6 °C 10.9 °C 1010.1 hPa SSO 8.6 km/h 10 km/h 74% 0.0 mm
00:54 15.6 °C 10.9 °C 1010.1 hPa SSO 6.9 km/h 10 km/h 73.3% 0.0 mm
00:59 15.6 °C 10.8 °C 1010.1 hPa SSO 6.9 km/h 9.5 km/h 73% 0.0 mm
01:04 15.7 °C 10.8 °C 1010.1 hPa SSO 6.9 km/h 12.2 km/h 73% 0.0 mm
01:09 15.6 °C 10.8 °C 1010.1 hPa SSO 6.9 km/h 13 km/h 73% 0.0 mm
01:14 15.6 °C 10.8 °C 1009.9 hPa SSO 6.9 km/h 11.1 km/h 72.9% 0.0 mm
01:19 15.6 °C 10.7 °C 1009.9 hPa SSO 7.1 km/h 11.1 km/h 73% 0.0 mm
01:24 15.5 °C 10.6 °C 1009.9 hPa Sur 7.6 km/h 11.1 km/h 73% 0.0 mm
01:29 15.4 °C 10.7 °C 1009.8 hPa SSO 7.3 km/h 9.5 km/h 73.8% 0.0 mm
01:34 15.3 °C 10.7 °C 1009.8 hPa SSO 6.9 km/h 9.5 km/h 74% 0.0 mm
01:39 15.3 °C 10.7 °C 1009.8 hPa SO 6.8 km/h 9.5 km/h 74% 0.0 mm
01:44 15.2 °C 10.6 °C 1009.7 hPa SO 6.4 km/h 11.1 km/h 74% 0.0 mm
01:49 15.2 °C 10.6 °C 1009.7 hPa OSO 6.2 km/h 7.6 km/h 74% 0.0 mm
01:54 15.2 °C 10.6 °C 1009.7 hPa OSO 5.8 km/h 7.6 km/h 74% 0.0 mm
01:59 15.2 °C 10.6 °C 1009.6 hPa OSO 5.4 km/h 9.5 km/h 74% 0.0 mm
02:04 15.1 °C 10.5 °C 1009.6 hPa SO 4.7 km/h 8.4 km/h 74% 0.0 mm
02:09 15.1 °C 10.5 °C 1009.6 hPa OSO 5.1 km/h 8.4 km/h 74% 0.0 mm
02:14 15.1 °C 10.5 °C 1009.5 hPa OSO 5.8 km/h 7.6 km/h 74% 0.0 mm
02:19 15.1 °C 10.5 °C 1009.5 hPa SO 5.5 km/h 7.6 km/h 74% 0.0 mm
02:24 15 °C 10.5 °C 1009.5 hPa SO 5 km/h 7.4 km/h 74.3% 0.0 mm
02:29 15 °C 10.6 °C 1009.5 hPa SO 4.9 km/h 7.4 km/h 75% 0.0 mm
02:34 14.9 °C 10.5 °C 1009.5 hPa SSO 4.7 km/h 7.4 km/h 75% 0.0 mm
02:39 14.9 °C 10.5 °C 1009.5 hPa Sur 4.7 km/h 7.4 km/h 75% 0.0 mm
02:44 14.8 °C 10.6 °C 1009.4 hPa Sur 4.7 km/h 4.7 km/h 75.9% 0.0 mm
02:49 14.8 °C 10.6 °C 1009.4 hPa Sur 4.1 km/h 6.4 km/h 76% 0.0 mm
02:54 14.8 °C 10.6 °C 1009.4 hPa SSE 2.9 km/h 7.4 km/h 76.2% 0.0 mm
02:59 14.7 °C 10.7 °C 1009.4 hPa SSO 3.7 km/h 8.4 km/h 77% 0.0 mm
03:04 14.7 °C 10.7 °C 1009.4 hPa SSO 5 km/h 7.4 km/h 77.1% 0.0 mm
03:09 14.6 °C 10.8 °C 1009.4 hPa SSO 5 km/h 7.4 km/h 78% 0.0 mm
03:14 14.6 °C 10.8 °C 1009.3 hPa SSO 5 km/h 8.4 km/h 78% 0.0 mm
03:19 14.6 °C 10.8 °C 1009.3 hPa Sur 5.2 km/h 9.3 km/h 78.4% 0.0 mm
03:24 14.5 °C 10.9 °C 1009.3 hPa Sur 5.8 km/h 9.5 km/h 79% 0.0 mm
03:29 14.4 °C 11 °C 1009.2 hPa SSE 6 km/h 10 km/h 79.9% 0.0 mm
03:34 14.3 °C 11 °C 1009.2 hPa SSE 6.4 km/h 10.3 km/h 80.8% 0.0 mm
03:39 14.2 °C 11.1 °C 1009.2 hPa SSE 6.6 km/h 11.1 km/h 81.6% 0.0 mm
03:44 14.1 °C 11.1 °C 1009.1 hPa Sur 6.9 km/h 11.9 km/h 82.3% 0.0 mm
03:49 14 °C 11.2 °C 1009.1 hPa Sur 7.4 km/h 11.1 km/h 83% 0.0 mm
03:54 13.9 °C 11.1 °C 1009.1 hPa SSO 8.4 km/h 11.1 km/h 83% 0.0 mm
03:59 13.9 °C 11.1 °C 1009.0 hPa SSO 7.7 km/h 11.1 km/h 83% 0.0 mm
04:04 13.9 °C 11.1 °C 1009.0 hPa Sur 6.4 km/h 9.5 km/h 83% 0.0 mm
04:09 13.9 °C 11.1 °C 1009.0 hPa SSO 6.2 km/h 10 km/h 83% 0.0 mm
04:14 13.9 °C 11.1 °C 1008.9 hPa SSO 5.8 km/h 10 km/h 83% 0.0 mm
04:19 13.9 °C 11 °C 1008.9 hPa SSO 6.2 km/h 11.1 km/h 82.8% 0.0 mm
04:24 14 °C 11 °C 1008.9 hPa SSO 6.9 km/h 11.1 km/h 82% 0.0 mm
04:29 14.1 °C 10.9 °C 1008.8 hPa SSO 7.1 km/h 11.1 km/h 81.3% 0.0 mm
04:34 14.1 °C 10.9 °C 1008.8 hPa SSO 7.6 km/h 9.3 km/h 80.9% 0.0 mm
04:39 14.2 °C 10.8 °C 1008.8 hPa SSO 7 km/h 9.3 km/h 80% 0.0 mm
04:44 14.3 °C 10.7 °C 1008.8 hPa SSO 5.8 km/h 8.4 km/h 79.2% 0.0 mm
04:49 14.3 °C 10.6 °C 1008.8 hPa SSO 5.8 km/h 9.5 km/h 78.5% 0.0 mm
04:54 14.4 °C 10.6 °C 1008.8 hPa SSO 5.8 km/h 9.5 km/h 77.9% 0.0 mm
04:59 14.5 °C 10.5 °C 1008.6 hPa SO 6 km/h 10 km/h 77% 0.0 mm
05:04 14.5 °C 10.4 °C 1008.6 hPa SO 6.4 km/h 9.5 km/h 76.5% 0.0 mm
05:09 14.6 °C 10.4 °C 1008.6 hPa SO 6.2 km/h 9.3 km/h 76% 0.0 mm
05:14 14.6 °C 10.4 °C 1008.6 hPa SO 5.8 km/h 8.4 km/h 76% 0.0 mm
05:19 14.6 °C 10.3 °C 1008.6 hPa SO 5.5 km/h 7.4 km/h 75.1% 0.0 mm
05:24 14.7 °C 10.3 °C 1008.6 hPa SSO 5 km/h 7.4 km/h 75% 0.0 mm
05:29 14.7 °C 10.3 °C 1008.6 hPa SO 5 km/h 11.1 km/h 75% 0.0 mm
05:34 14.7 °C 10.3 °C 1008.6 hPa SSO 5 km/h 11.1 km/h 75% 0.0 mm
05:39 14.7 °C 10.3 °C 1008.6 hPa SSO 5.3 km/h 9.3 km/h 74.7% 0.0 mm
05:44 14.7 °C 10.3 °C 1008.6 hPa SSO 5.8 km/h 8.4 km/h 75% 0.0 mm
05:49 14.7 °C 10.3 °C 1008.6 hPa SO 5.8 km/h 8.7 km/h 75% 0.0 mm
05:54 14.7 °C 10.3 °C 1008.6 hPa SO 5.8 km/h 9.3 km/h 75% 0.0 mm
05:59 14.6 °C 10.2 °C 1008.4 hPa SO 5.5 km/h 10.3 km/h 75% 0.0 mm
06:04 14.6 °C 10.2 °C 1008.4 hPa SSO 5 km/h 11.1 km/h 75% 0.0 mm
06:09 14.6 °C 10.2 °C 1008.5 hPa SSO 5.9 km/h 11.1 km/h 75.1% 0.0 mm
06:14 14.5 °C 10.4 °C 1008.5 hPa SSO 7.6 km/h 11.1 km/h 76% 0.0 mm
06:19 14.5 °C 10.3 °C 1008.5 hPa SSO 7.4 km/h 11.9 km/h 76% 0.0 mm
06:24 14.4 °C 10.2 °C 1008.5 hPa SSO 6.9 km/h 11.1 km/h 76% 0.0 mm
06:29 14.4 °C 10.2 °C 1008.5 hPa SO 7.1 km/h 10 km/h 76% 0.0 mm
06:34 14.4 °C 10.2 °C 1008.5 hPa SO 7.6 km/h 11.1 km/h 76% 0.0 mm
06:39 14.4 °C 10.2 °C 1008.6 hPa SO 7.4 km/h 12.2 km/h 76% 0.0 mm
06:44 14.4 °C 10 °C 1008.6 hPa SSO 6.9 km/h 14 km/h 75% 0.0 mm
06:49 14.5 °C 10.1 °C 1008.6 hPa SSO 7.5 km/h 14.8 km/h 75% 0.0 mm
06:54 14.5 °C 10.1 °C 1008.6 hPa SSO 8.7 km/h 13 km/h 75% 0.0 mm
06:59 14.4 °C 10.1 °C 1008.6 hPa SSO 8.6 km/h 11.1 km/h 75.3% 0.0 mm
07:04 14.4 °C 10.2 °C 1008.6 hPa SSO 8.4 km/h 11.1 km/h 76% 0.0 mm
07:09 14.3 °C 10.2 °C 1008.6 hPa SSO 7.9 km/h 13 km/h 76% 0.0 mm
07:14 14.3 °C 10.2 °C 1008.6 hPa SO 6.9 km/h 13 km/h 76.3% 0.0 mm
07:19 14.3 °C 10.3 °C 1008.6 hPa SO 6.9 km/h 11.1 km/h 77% 0.0 mm
07:24 14.3 °C 10.3 °C 1008.8 hPa SO 6.9 km/h 11.1 km/h 77% 0.0 mm
07:29 14.3 °C 10.3 °C 1008.8 hPa SSO 6.9 km/h 11.9 km/h 77% 0.0 mm
07:34 14.3 °C 10.3 °C 1008.8 hPa SSO 6.9 km/h 11.9 km/h 77% 0.0 mm
07:39 14.3 °C 10.4 °C 1008.8 hPa Sur 7.1 km/h 11.1 km/h 77.7% 0.0 mm
07:44 14.2 °C 10.4 °C 1008.7 hPa Sur 7.6 km/h 11.1 km/h 78% 0.0 mm
07:49 14.2 °C 10.5 °C 1008.7 hPa Sur 7.4 km/h 10 km/h 78.3% 0.0 mm
07:54 14.2 °C 10.6 °C 1008.8 hPa Sur 6.9 km/h 11.9 km/h 79% 0.0 mm
07:59 14.1 °C 10.5 °C 1008.8 hPa SSO 6.9 km/h 13 km/h 79% 0.0 mm
08:04 14.1 °C 10.5 °C 1008.8 hPa SSO 6.9 km/h 10 km/h 79% 0.0 mm
08:09 14.2 °C 10.6 °C 1008.8 hPa Sur 7.1 km/h 13.7 km/h 79% 0.0 mm
08:14 14.2 °C 10.6 °C 1008.8 hPa SO 7.6 km/h 13 km/h 78.7% 0.0 mm
08:19 14.2 °C 10.4 °C 1008.8 hPa SO 7.4 km/h 13 km/h 78% 0.0 mm
08:24 14.2 °C 10.4 °C 1008.8 hPa SSO 6.9 km/h 13 km/h 78% 0.0 mm
08:29 14.2 °C 10.4 °C 1008.8 hPa SSO 7.5 km/h 11.1 km/h 78% 0.0 mm
08:34 14.2 °C 10.4 °C 1008.8 hPa SO 8.7 km/h 11.9 km/h 78% 0.0 mm
08:39 14.2 °C 10.5 °C 1009.0 hPa SSO 8.3 km/h 11.9 km/h 78% 0.0 mm
08:44 14.3 °C 10.5 °C 1009.0 hPa SO 7.6 km/h 11.9 km/h 78% 0.0 mm
08:49 14.3 °C 10.5 °C 1009.0 hPa SO 7.4 km/h 11.1 km/h 78% 0.0 mm
08:54 14.4 °C 10.5 °C 1009.0 hPa OSO 6.9 km/h 11.1 km/h 77.4% 0.0 mm
08:59 14.4 °C 10.4 °C 1009.0 hPa OSO 6.5 km/h 10 km/h 77% 0.0 mm
09:04 14.4 °C 10.5 °C 1009.0 hPa SO 5.8 km/h 8.4 km/h 77% 0.0 mm
09:09 14.6 °C 10.6 °C 1009.0 hPa SO 5.4 km/h 7.4 km/h 77% 0.0 mm
09:14 14.6 °C 10.6 °C 1009.0 hPa Sur 4.7 km/h 7.6 km/h 76.9% 0.0 mm
09:19 14.6 °C 10.6 °C 1009.0 hPa SSE 4.8 km/h 9.5 km/h 77% 0.0 mm
09:24 14.6 °C 10.7 °C 1009.0 hPa SSE 5 km/h 11.1 km/h 77.4% 0.0 mm
09:29 14.5 °C 10.7 °C 1008.9 hPa Sur 5.6 km/h 9.5 km/h 78% 0.0 mm
09:34 14.5 °C 10.7 °C 1008.9 hPa SSO 6.9 km/h 8.7 km/h 78% 0.0 mm
09:39 14.5 °C 10.7 °C 1008.9 hPa SSO 5.9 km/h 9.5 km/h 78% 0.0 mm
09:44 14.6 °C 10.7 °C 1008.9 hPa SSO 3.9 km/h 9.3 km/h 77.5% 0.0 mm
09:49 14.7 °C 10.7 °C 1008.9 hPa SO 4.1 km/h 7.6 km/h 77% 0.0 mm
09:54 14.8 °C 10.6 °C 1008.9 hPa OSO 4.7 km/h 8.4 km/h 75.9% 0.0 mm
09:59 15 °C 10.4 °C 1008.8 hPa SO 4.7 km/h 8.4 km/h 74.1% 0.0 mm
10:04 15.2 °C 10.4 °C 1008.8 hPa OSO 4.7 km/h 10 km/h 73.2% 0.0 mm
10:09 15.2 °C 10.4 °C 1008.9 hPa OSO 5 km/h 11.9 km/h 73% 0.0 mm
10:14 15.2 °C 10.2 °C 1008.9 hPa OSO 5.8 km/h 13 km/h 72.1% 0.0 mm
10:19 15.2 °C 10.2 °C 1008.9 hPa Oeste 6.4 km/h 13 km/h 72% 0.0 mm
10:24 15.3 °C 10.3 °C 1008.9 hPa SO 7.6 km/h 11.1 km/h 72% 0.0 mm
10:29 15.3 °C 10.2 °C 1008.8 hPa OSO 7.2 km/h 13 km/h 71.6% 0.0 mm
10:34 15.3 °C 10.2 °C 1008.8 hPa SSO 6.4 km/h 9.3 km/h 71.5% 0.0 mm
10:39 15.5 °C 10.4 °C 1008.8 hPa SO 6.2 km/h 11.1 km/h 71.5% 0.0 mm
10:44 15.7 °C 10.4 °C 1008.8 hPa OSO 5.8 km/h 13 km/h 71% 0.0 mm
10:49 15.7 °C 10.5 °C 1008.8 hPa SO 5.8 km/h 11.1 km/h 70.9% 0.0 mm
10:54 15.9 °C 10.6 °C 1008.8 hPa SSE 5.8 km/h 10.3 km/h 70.4% 0.0 mm
10:59 16.2 °C 10.4 °C 1008.7 hPa SSE 6 km/h 13 km/h 68.7% 0.0 mm
11:04 16.3 °C 10.5 °C 1008.7 hPa Sur 6.4 km/h 13.7 km/h 68.4% 0.0 mm
11:09 16.4 °C 10.4 °C 1008.7 hPa Sur 6.4 km/h 13 km/h 67.5% 0.0 mm
11:14 16.6 °C 10.2 °C 1008.7 hPa SO 6.4 km/h 15.6 km/h 65.9% 0.0 mm
11:19 16.6 °C 9.8 °C 1008.7 hPa SO 6.2 km/h 11.1 km/h 64.1% 0.0 mm
11:24 16.7 °C 9.9 °C 1008.7 hPa SO 5.8 km/h 11.1 km/h 64.4% 0.0 mm
11:29 16.8 °C 10.1 °C 1008.7 hPa OSO 5.8 km/h 10 km/h 64.8% 0.0 mm
11:34 16.8 °C 9.9 °C 1008.7 hPa SO 5.8 km/h 10 km/h 64% 0.0 mm
11:39 16.7 °C 9.8 °C 1008.7 hPa OSO 5.4 km/h 7.4 km/h 64% 0.0 mm
11:44 16.7 °C 9.9 °C 1008.7 hPa Sur 4.7 km/h 8.4 km/h 64.2% 0.0 mm
11:49 16.9 °C 10 °C 1008.7 hPa SO 4.4 km/h 9.5 km/h 63.8% 0.0 mm
11:54 17 °C 10.1 °C 1008.7 hPa Oeste 3.9 km/h 6.9 km/h 63.9% 0.0 mm
11:59 17.1 °C 10.1 °C 1008.7 hPa OSO 3.6 km/h 9.3 km/h 63.5% 0.0 mm
12:04 17.1 °C 10.2 °C 1008.7 hPa Sur 3.2 km/h 7.4 km/h 63.9% 0.0 mm
12:09 16.9 °C 10.1 °C 1008.7 hPa SSE 3.8 km/h 7.6 km/h 64% 0.0 mm
12:14 17.1 °C 10.1 °C 1008.6 hPa OSO 5 km/h 6.9 km/h 63.6% 0.0 mm
12:19 17.1 °C 10.1 °C 1008.6 hPa North 4.4 km/h 7.4 km/h 63.5% 0.0 mm
12:24 17.3 °C 10.2 °C 1008.6 hPa NE 3.2 km/h 5.8 km/h 63.4% 0.0 mm
12:29 17.6 °C 10.4 °C 1008.2 hPa NNO 3.2 km/h 5.6 km/h 62.9% 0.0 mm
12:34 18 °C 10.4 °C 1008.2 hPa ESE 3.2 km/h 5.8 km/h 61.1% 0.0 mm
12:39 18.3 °C 10.2 °C 1008.2 hPa SE 3.2 km/h 8.4 km/h 59.5% 0.0 mm
12:44 18.2 °C 10.3 °C 1008.1 hPa ESE 3.2 km/h 9.5 km/h 60.1% 0.0 mm
12:49 18 °C 10.2 °C 1008.1 hPa ESE 3.7 km/h 9.3 km/h 60.4% 0.0 mm
12:54 17.8 °C 10.2 °C 1008.1 hPa Este 4.7 km/h 9.5 km/h 61% 0.0 mm
12:59 17.7 °C 10.1 °C 1007.9 hPa ESE 4.8 km/h 9.5 km/h 61% 0.0 mm
13:04 17.7 °C 10.2 °C 1007.9 hPa ESE 5 km/h 11.9 km/h 61.6% 0.0 mm
13:09 17.7 °C 10.3 °C 1007.9 hPa SE 5.3 km/h 11.1 km/h 61.7% 0.0 mm
13:14 17.7 °C 10.1 °C 1007.8 hPa ESE 5.8 km/h 13 km/h 61% 0.0 mm
13:19 17.7 °C 10.1 °C 1007.8 hPa ESE 6.6 km/h 13 km/h 61% 0.0 mm
13:24 17.7 °C 10 °C 1007.8 hPa ESE 8.4 km/h 11.1 km/h 60.6% 0.0 mm
13:29 17.7 °C 9.7 °C 1007.7 hPa Este 7.7 km/h 7.6 km/h 59.4% 0.0 mm
13:34 17.8 °C 9.9 °C 1007.7 hPa Este 6.4 km/h 7.4 km/h 60% 0.0 mm
13:39 17.8 °C 9.9 °C 1007.7 hPa SE 5.4 km/h 7.4 km/h 59.8% 0.0 mm
13:44 17.9 °C 9.8 °C 1007.7 hPa SE 3.2 km/h 4.7 km/h 59% 0.0 mm
13:49 17.9 °C 9.6 °C 1007.7 hPa SE 3.1 km/h 10 km/h 58.4% 0.0 mm
13:54 18 °C 9.4 °C 1007.7 hPa ONO 2.9 km/h 7.4 km/h 57.4% 0.0 mm
13:59 17.9 °C 9.3 °C 1007.6 hPa ONO 3.2 km/h 8.7 km/h 56.9% 0.0 mm
14:04 18 °C 9.2 °C 1007.6 hPa ONO 3.9 km/h 9.3 km/h 56.7% 0.0 mm
14:09 18 °C 9.3 °C 1007.6 hPa ONO 4.1 km/h 7.4 km/h 56.6% 0.0 mm
14:14 18.1 °C 9.4 °C 1007.5 hPa ONO 4.7 km/h 4.7 km/h 56.9% 0.0 mm
14:19 18.1 °C 9.4 °C 1007.5 hPa North 4.1 km/h 7.4 km/h 57% 0.0 mm
14:24 18.1 °C 9.2 °C 1007.5 hPa NNO 2.9 km/h 5.8 km/h 56.2% 0.0 mm
14:29 18.1 °C 9.2 °C 1007.3 hPa NNO 3 km/h 5.8 km/h 56.1% 0.0 mm
14:34 18.1 °C 9.2 °C 1007.3 hPa NNO 3.2 km/h 5.6 km/h 56.2% 0.0 mm
14:39 18.1 °C 9.2 °C 1007.3 hPa NNO 3.1 km/h 3.9 km/h 56.1% 0.0 mm
14:44 18.1 °C 9.2 °C 1007.3 hPa NO 2.9 km/h 10.3 km/h 56.3% 0.0 mm
14:49 18 °C 9.3 °C 1007.3 hPa ONO 4.1 km/h 27.8 km/h 56.6% 0.0 mm
14:54 17.2 °C 8.7 °C 1007.6 hPa ONO 6.4 km/h 27.8 km/h 57.4% 0.0 mm
14:59 16.4 °C 9 °C 1007.6 hPa ONO 9.8 km/h 25.9 km/h 61.6% 0.0 mm
15:04 15.8 °C 9.2 °C 1007.6 hPa ONO 16.1 km/h 25.9 km/h 64.8% 0.0 mm
15:09 15.6 °C 9.4 °C 1007.6 hPa ONO 15.7 km/h 25.9 km/h 66.5% 0.0 mm
15:14 15.6 °C 9.7 °C 1007.6 hPa NO 14.8 km/h 28.2 km/h 68% 0.0 mm
15:19 15.3 °C 9.7 °C 1007.6 hPa NO 15.2 km/h 29.6 km/h 69.1% 0.0 mm
15:24 15.1 °C 10.1 °C 1007.6 hPa NO 16.1 km/h 25.9 km/h 72.4% 0.0 mm
15:29 14.7 °C 10.3 °C 1007.5 hPa NO 15.1 km/h 20.9 km/h 74.7% 0.0 mm
15:34 14.5 °C 10.3 °C 1007.5 hPa NO 13 km/h 20.4 km/h 76% 0.0 mm
15:39 14.4 °C 10.4 °C 1007.8 hPa NO 12 km/h 15.6 km/h 76.9% 0.0 mm
15:44 14.4 °C 10.5 °C 1007.8 hPa Oeste 10 km/h 9.3 km/h 77.1% 0.0 mm
15:49 14.4 °C 10.5 °C 1007.8 hPa SSE 8.8 km/h 12.2 km/h 77.4% 0.0 mm
15:54 14.4 °C 10.4 °C 1008.0 hPa SSE 6.4 km/h 15.6 km/h 77% 0.0 mm
15:59 14.5 °C 10.6 °C 1008.0 hPa Sur 7.2 km/h 13 km/h 77.3% 0.0 mm
16:04 14.6 °C 10.8 °C 1008.0 hPa SSE 8.7 km/h 18.5 km/h 78% 0.3 mm
16:09 14.4 °C 10.8 °C 1008.1 hPa SSE 9.1 km/h 16.7 km/h 79.2% 0.3 mm
16:14 14.3 °C 10.9 °C 1008.1 hPa SSE 10 km/h 18 km/h 80.2% 0.3 mm
16:19 14.1 °C 11 °C 1008.1 hPa SSE 10.1 km/h 18.5 km/h 81.5% 0.3 mm
16:24 14.1 °C 11.1 °C 1008.1 hPa SSE 10.3 km/h 16.7 km/h 82% 0.3 mm
16:29 14.1 °C 11.1 °C 1007.9 hPa SSE 10.3 km/h 15.6 km/h 82.4% 0.3 mm
16:34 14.1 °C 11.1 °C 1007.9 hPa SSE 10.3 km/h 14.8 km/h 82.4% 0.3 mm
16:39 14.1 °C 11 °C 1007.9 hPa SSE 9.8 km/h 11.1 km/h 82% 0.3 mm
16:44 14.1 °C 11.1 °C 1007.8 hPa Sur 8.7 km/h 11.1 km/h 82.1% 0.3 mm
16:49 14.1 °C 11.1 °C 1007.8 hPa Sur 8.1 km/h 9.5 km/h 82% 0.3 mm
16:54 14.1 °C 11.1 °C 1008.1 hPa SSO 6.9 km/h 13 km/h 82% 0.3 mm
16:59 14.1 °C 11 °C 1008.1 hPa SSO 7.4 km/h 13 km/h 82% 0.3 mm
17:04 14.1 °C 11.1 °C 1008.1 hPa SSO 8.4 km/h 9.5 km/h 82% 0.3 mm
17:09 14.2 °C 11.2 °C 1008.1 hPa Sur 7.2 km/h 7.4 km/h 82% 0.0 mm
17:14 14.3 °C 11.1 °C 1008.1 hPa SSE 5 km/h 8.7 km/h 81.4% 0.0 mm
17:19 14.3 °C 11.1 °C 1008.1 hPa ESE 5 km/h 11.1 km/h 81% 0.0 mm
17:24 14.3 °C 11.2 °C 1008.2 hPa ESE 5 km/h 9.3 km/h 81.9% 0.0 mm
17:29 14.3 °C 11.4 °C 1008.2 hPa ESE 5 km/h 9.3 km/h 82.6% 0.0 mm
17:34 14.3 °C 11.5 °C 1008.2 hPa ESE 5 km/h 7.4 km/h 83.4% 0.0 mm
17:39 14.4 °C 11.7 °C 1008.2 hPa Este 4.3 km/h 5.8 km/h 84% 0.0 mm
17:44 14.3 °C 11.6 °C 1008.2 hPa NNE 2.9 km/h 7.6 km/h 84% 0.0 mm
17:49 14.2 °C 11.6 °C 1008.2 hPa NE 3.5 km/h 8.4 km/h 84% 0.0 mm
17:54 14.1 °C 11.5 °C 1008.4 hPa NNE 4.7 km/h 7.6 km/h 84.5% 0.0 mm
17:59 14.1 °C 11.6 °C 1008.4 hPa NNE 4.7 km/h 10 km/h 85% 0.0 mm
18:04 14 °C 11.5 °C 1008.4 hPa North 4.7 km/h 9.5 km/h 85.3% 0.0 mm
18:09 13.9 °C 11.6 °C 1008.5 hPa NO 5.1 km/h 9.5 km/h 86% 0.0 mm
18:14 13.9 °C 11.6 °C 1008.5 hPa NNO 5.8 km/h 8.4 km/h 86% 0.0 mm
18:19 13.9 °C 11.6 °C 1008.5 hPa NO 5.5 km/h 11.1 km/h 86% 0.0 mm
18:24 13.8 °C 11.5 °C 1008.6 hPa NO 5 km/h 9.3 km/h 86% 0.0 mm
18:29 13.8 °C 11.5 °C 1008.6 hPa North 4.9 km/h 7.4 km/h 86% 0.0 mm
18:34 13.8 °C 11.5 °C 1008.6 hPa NNE 4.7 km/h 10.3 km/h 86% 0.0 mm
18:39 13.8 °C 11.5 °C 1008.7 hPa NE 4.8 km/h 11.1 km/h 86% 0.0 mm
18:44 13.9 °C 11.6 °C 1008.7 hPa NE 5 km/h 11.1 km/h 86% 0.0 mm
18:49 13.9 °C 11.5 °C 1008.7 hPa NNE 5.3 km/h 8.4 km/h 85.4% 0.0 mm
18:54 13.9 °C 11.4 °C 1008.9 hPa NNE 5.8 km/h 6.4 km/h 85% 0.0 mm
18:59 13.9 °C 11.4 °C 1008.9 hPa NNE 4.7 km/h 7.4 km/h 85% 0.0 mm
19:04 13.9 °C 11.5 °C 1008.9 hPa NE 2.9 km/h 5.8 km/h 85.4% 0.0 mm
19:09 13.9 °C 11.6 °C 1009.0 hPa ENE 3 km/h 5.6 km/h 86% 0.0 mm
19:14 13.9 °C 11.6 °C 1009.0 hPa ENE 3.2 km/h 5.6 km/h 86% 0.0 mm
19:19 13.9 °C 11.6 °C 1009.0 hPa NE 3.4 km/h 7.4 km/h 86% 0.0 mm
19:24 13.8 °C 11.6 °C 1009.0 hPa NE 3.9 km/h 5.6 km/h 86% 0.0 mm
19:29 13.8 °C 11.4 °C 1008.9 hPa NE 3.9 km/h 7.4 km/h 85.4% 0.0 mm
19:34 13.8 °C 11.4 °C 1008.9 hPa NE 3.9 km/h 5.8 km/h 85.3% 0.0 mm
19:39 13.8 °C 11.3 °C 1009.0 hPa ESE 3.5 km/h 5.6 km/h 85% 0.0 mm
19:44 13.8 °C 11.3 °C 1009.0 hPa Este 2.9 km/h 4.7 km/h 85% 0.0 mm
19:49 13.8 °C 11.3 °C 1009.0 hPa NE 2.9 km/h 7.4 km/h 85% 0.0 mm
19:54 13.7 °C 11.2 °C 1009.0 hPa NE 2.9 km/h 7.4 km/h 85% 0.0 mm
19:59 13.7 °C 11.2 °C 1009.0 hPa ESE 3.6 km/h 8.4 km/h 85% 0.0 mm
20:04 13.7 °C 11.2 °C 1009.0 hPa Este 4.7 km/h 7.4 km/h 84.8% 0.0 mm
20:09 13.7 °C 11 °C 1009.1 hPa NE 4.7 km/h 9.3 km/h 84.1% 0.0 mm
20:14 13.6 °C 10.9 °C 1009.1 hPa NE 4.7 km/h 7.6 km/h 83.9% 0.0 mm
20:19 13.6 °C 10.8 °C 1009.1 hPa NE 4.7 km/h 7.4 km/h 83% 0.0 mm
20:24 13.5 °C 10.7 °C 1009.2 hPa NE 4.7 km/h 5.8 km/h 83% 0.0 mm
20:29 13.5 °C 10.7 °C 1009.2 hPa NE 4.4 km/h 7.4 km/h 83% 0.0 mm
20:34 13.5 °C 10.6 °C 1009.2 hPa NNE 3.9 km/h 7.6 km/h 82.4% 0.0 mm
20:39 13.5 °C 10.5 °C 1009.2 hPa NNE 3.9 km/h 6.9 km/h 82.3% 0.0 mm
20:44 13.4 °C 10.6 °C 1009.2 hPa NNE 3.9 km/h 7.4 km/h 83% 0.0 mm
20:49 13.4 °C 10.6 °C 1009.2 hPa NE 3.9 km/h 5.8 km/h 83% 0.0 mm
20:54 13.3 °C 10.5 °C 1009.3 hPa NE 3.9 km/h 5.8 km/h 83% 0.0 mm
20:59 13.3 °C 10.6 °C 1009.3 hPa NE 3.9 km/h 5.6 km/h 83.5% 0.0 mm
21:04 13.3 °C 10.6 °C 1009.3 hPa NE 3.9 km/h 4.7 km/h 84% 0.0 mm
21:09 13.2 °C 10.6 °C 1009.4 hPa NE 3.4 km/h 5 km/h 84% 0.0 mm
21:14 13.2 °C 10.6 °C 1009.4 hPa NE 2.3 km/h 5.6 km/h 84.1% 0.0 mm
21:19 13.2 °C 10.6 °C 1009.4 hPa NE 2.3 km/h   84.4% 0.0 mm
21:24 13.1 °C 10.5 °C 1009.5 hPa NE 2.3 km/h   84.6% 0.0 mm
21:29 13.1 °C 10.6 °C 1009.5 hPa NE 1.5 km/h   85% 0.0 mm
21:34 13.1 °C 10.6 °C 1009.5 hPa Calm   3.7 km/h 85% 0.0 mm
21:39 13.1 °C 10.6 °C 1009.5 hPa Calm   3.7 km/h 85% 0.0 mm
21:44 13 °C 10.6 °C 1009.4 hPa Calm   5.6 km/h 85.5% 0.0 mm
21:49 13.1 °C 10.9 °C 1009.4 hPa SE 1 km/h 7.6 km/h 86.3% 0.0 mm
21:54 13.1 °C 11 °C 1009.4 hPa SE 3.2 km/h 7.4 km/h 87% 0.0 mm
21:59 13 °C 11 °C 1009.4 hPa SE 3.4 km/h 5.6 km/h 87.8% 0.0 mm
22:04 12.9 °C 11 °C 1009.4 hPa SE 3.9 km/h 4.7 km/h 88% 0.0 mm
22:09 12.9 °C 11.1 °C 1009.4 hPa SE 3.3 km/h 3.7 km/h 88.8% 0.0 mm
22:14 12.9 °C 11.1 °C 1009.3 hPa SE 2.3 km/h 4.7 km/h 89% 0.0 mm
22:19 12.8 °C 11.1 °C 1009.3 hPa SE 2.3 km/h 5.6 km/h 89% 0.0 mm
22:24 12.8 °C 11.1 °C 1009.3 hPa SE 2.3 km/h 5.6 km/h 89% 0.0 mm
22:29 12.7 °C 11 °C 1009.1 hPa ESE 2.6 km/h 7.4 km/h 89% 0.0 mm
22:34 12.6 °C 10.9 °C 1009.1 hPa ESE 3.2 km/h 4.7 km/h 89.2% 0.0 mm
22:39 12.5 °C 10.9 °C 1009.1 hPa ESE 3.1 km/h 4.7 km/h 90% 0.0 mm
22:44 12.4 °C 10.8 °C 1009.1 hPa Este 2.9 km/h 5.8 km/h 90% 0.0 mm
22:49 12.3 °C 10.8 °C 1009.1 hPa ENE 2.7 km/h 5.8 km/h 90% 0.0 mm
22:54 12.3 °C 10.7 °C 1009.1 hPa ENE 2.3 km/h 7.4 km/h 90% 0.0 mm
22:59 12.2 °C 10.6 °C 1009.0 hPa ENE 2.5 km/h 4.7 km/h 90% 0.0 mm
23:04 12.2 °C 10.6 °C 1009.0 hPa NE 2.9 km/h 7.4 km/h 90% 0.0 mm
23:09 12 °C 10.4 °C 1009.2 hPa NNE 3 km/h 7.4 km/h 90% 0.0 mm
23:14 11.8 °C 10.3 °C 1009.2 hPa NNE 3.2 km/h 7.6 km/h 90.1% 0.0 mm
23:19 11.8 °C 10.4 °C 1009.2 hPa NE 3.8 km/h 8.4 km/h 91% 0.0 mm
23:24 11.7 °C 10.3 °C 1009.2 hPa NE 5 km/h 7.4 km/h 91% 0.0 mm
23:29 11.8 °C 10.5 °C 1009.1 hPa NE 4.9 km/h 7.4 km/h 91.6% 0.0 mm
23:34 11.8 °C 10.6 °C 1009.1 hPa NNE 4.7 km/h 5.8 km/h 92% 0.0 mm
23:39 11.8 °C 10.6 °C 1009.2 hPa NNE 4.2 km/h 5.6 km/h 92% 0.0 mm
23:44 11.8 °C 10.6 °C 1009.2 hPa North 3.2 km/h 5.8 km/h 92% 0.0 mm
23:49 11.8 °C 10.6 °C 1009.2 hPa North 3.2 km/h 5.6 km/h 92% 0.0 mm
23:54 11.8 °C 10.6 °C 1009.2 hPa NO 3.2 km/h 5.8 km/h 92% 0.0 mm
23:59 11.8 °C 10.5 °C 1009.2 hPa NO 3.5 km/h 7.4 km/h 92% 0.0 mm
Murcia-Puente Tocinos, Espa?a
Compliments of Weather Underground - 3 mb

La estación de MeteoMurcia.com, publica sus datos en los siguientes proyectos:

Weather Underground PWS IMURCIAP2 Meteoclimatic www.awekas.at

W3Counter
Web Analytics